Terminal Aerodrome Forecast
Issued by NWS Louisville, KY

Home | Current Version | Previous Version | Text Only | Print | Product List | Glossary On
Versions: 1 2 3 4 5 6 7 8 9 10 11 12 13 14 15
000
FTUS43 KLMK 230900 AAB
TAFBWG
TAF AMD
KBWG 230959Z 2310/2406 VRB03KT 3SM BR SKC
      TEMPO 2310/2313 1 1/2SM BR
     FM231300 06004KT P6SM SCT250=

USA.gov is the U.S. government's official web portal to all federal, state and local government web resources and services.